createdAt,value
2019-01-02T00:01:05.692Z,1.87
2019-01-02T00:03:46.599Z,2.20
2019-01-02T00:06:27.265Z,1.73
2019-01-02T00:09:07.992Z,1.77
2019-01-02T00:11:48.785Z,1.43
2019-01-02T00:14:29.892Z,1.80
2019-01-02T00:17:11.429Z,1.17
2019-01-02T00:19:51.945Z,1.73
2019-01-02T00:22:32.599Z,2.13
2019-01-02T00:25:13.229Z,1.80
2019-01-02T00:27:53.841Z,1.70
2019-01-02T00:30:34.749Z,1.40
2019-01-02T00:33:15.666Z,1.43
2019-01-02T00:35:56.212Z,1.90
2019-01-02T00:38:36.784Z,1.73
2019-01-02T00:41:17.648Z,1.73
2019-01-02T00:43:58.671Z,1.80
2019-01-02T00:46:39.527Z,1.60
2019-01-02T00:49:20.482Z,1.57
2019-01-02T00:54:43.476Z,2.37
2019-01-02T00:57:24.540Z,2.00
2019-01-02T01:00:05.453Z,2.23
2019-01-02T01:02:46.546Z,2.50
2019-01-02T01:05:27.324Z,1.80
2019-01-02T01:08:08.180Z,2.27
2019-01-02T01:13:31.478Z,1.60
2019-01-02T01:16:12.565Z,2.00
2019-01-02T01:18:56.670Z,1.87
2019-01-02T01:21:36.899Z,2.23
2019-01-02T01:24:15.997Z,2.10
2019-01-02T01:27:03.773Z,1.93
2019-01-02T01:29:51.626Z,2.43
2019-01-02T01:32:39.400Z,2.40
2019-01-02T01:35:27.231Z,2.30
2019-01-02T01:38:15.389Z,1.97
2019-01-02T01:40:57.602Z,3.23
2019-01-02T01:43:38.570Z,2.27
2019-01-02T01:46:19.470Z,2.57
2019-01-02T01:49:00.297Z,1.63
2019-01-02T01:51:41.148Z,2.27
2019-01-02T01:54:21.711Z,1.27
2019-01-02T01:57:02.362Z,1.40
2019-01-02T01:59:43.105Z,1.60
2019-01-02T02:02:24.076Z,1.83
2019-01-02T02:05:04.897Z,2.27
2019-01-02T02:07:45.636Z,2.47
2019-01-02T02:10:26.393Z,1.80
2019-01-02T02:13:07.114Z,1.80
2019-01-02T02:15:47.758Z,1.43
2019-01-02T02:18:28.328Z,2.20
2019-01-02T02:21:09.260Z,1.77
2019-01-02T02:23:49.743Z,3.17
2019-01-02T02:26:30.568Z,1.20
2019-01-02T02:29:11.073Z,2.63
2019-01-02T02:31:51.700Z,2.40
2019-01-02T02:34:32.424Z,2.47
2019-01-02T02:37:13.190Z,1.80
2019-01-02T02:39:53.955Z,1.97
2019-01-02T02:42:34.950Z,2.07
2019-01-02T02:45:15.624Z,1.90
2019-01-02T02:47:56.313Z,1.87
2019-01-02T02:50:37.073Z,2.00
2019-01-02T02:53:18.428Z,1.90
2019-01-02T02:55:58.934Z,1.90
2019-01-02T02:58:39.860Z,1.90
2019-01-02T03:01:20.465Z,1.80
2019-01-02T03:03:59.592Z,1.57
2019-01-02T03:06:49.566Z,3.40
2019-01-02T03:09:37.184Z,2.53
2019-01-02T03:12:26.651Z,2.20
2019-01-02T03:15:14.411Z,2.47
2019-01-02T03:18:02.148Z,2.33
2019-01-02T03:20:49.883Z,2.43
2019-01-02T03:23:37.652Z,2.23
2019-01-02T03:26:25.419Z,2.40
2019-01-02T03:29:13.175Z,1.60
2019-01-02T03:32:02.632Z,2.57
2019-01-02T03:34:52.119Z,2.63
2019-01-02T03:37:39.861Z,2.47
2019-01-02T03:40:20.491Z,2.27
2019-01-02T03:43:00.886Z,2.67
2019-01-02T03:45:41.160Z,2.47
2019-01-02T03:48:21.938Z,2.77
2019-01-02T03:51:02.779Z,2.10
2019-01-02T03:53:43.549Z,2.13
2019-01-02T03:56:24.407Z,2.37
2019-01-02T03:59:04.991Z,2.53
2019-01-02T04:01:46.066Z,2.67
2019-01-02T04:04:26.702Z,2.03
2019-01-02T04:07:07.499Z,1.80
2019-01-02T04:09:47.960Z,2.50
2019-01-02T04:12:28.696Z,1.87
2019-01-02T04:15:07.834Z,3.13
2019-01-02T04:17:55.578Z,2.90
2019-01-02T04:20:43.347Z,2.23
2019-01-02T04:23:31.101Z,2.60
2019-01-02T04:26:18.861Z,2.13
2019-01-02T04:29:06.609Z,2.57
2019-01-02T04:31:54.412Z,2.10
2019-01-02T04:34:42.157Z,2.50
2019-01-02T04:37:29.905Z,2.70
2019-01-02T04:40:10.582Z,2.30
2019-01-02T04:42:50.963Z,2.40
2019-01-02T04:45:31.803Z,2.10
2019-01-02T04:48:12.574Z,2.43
2019-01-02T04:50:53.243Z,2.70
2019-01-02T04:53:33.766Z,2.60
2019-01-02T04:56:14.370Z,3.03
2019-01-02T04:58:55.299Z,3.00
2019-01-02T05:01:36.346Z,3.33
2019-01-02T05:06:59.524Z,2.50
2019-01-02T05:12:22.407Z,3.00
2019-01-02T05:15:02.986Z,3.23
2019-01-02T05:17:43.710Z,2.90
2019-01-02T05:20:24.487Z,2.80
2019-01-02T05:23:05.128Z,2.67
2019-01-02T05:25:46.036Z,2.30
2019-01-02T05:28:26.868Z,2.97
2019-01-02T05:31:07.742Z,2.50
2019-01-02T05:33:48.314Z,2.33
2019-01-02T05:36:28.751Z,1.93
2019-01-02T05:39:09.651Z,2.30
2019-01-02T05:41:50.737Z,3.23
2019-01-02T05:44:31.176Z,2.60
2019-01-02T05:47:11.771Z,2.20
2019-01-02T05:49:52.660Z,2.33
2019-01-02T05:52:33.366Z,2.00
2019-01-02T05:55:14.132Z,2.40
2019-01-02T05:57:55.040Z,2.43
2019-01-02T06:00:39.849Z,3.07
2019-01-02T06:03:17.888Z,2.97
2019-01-02T06:05:58.724Z,2.97
2019-01-02T06:08:39.517Z,2.10
2019-01-02T06:11:20.302Z,2.50
2019-01-02T06:14:01.048Z,2.50
2019-01-02T06:16:41.556Z,2.77
2019-01-02T06:19:21.995Z,2.10
2019-01-02T06:22:02.588Z,2.63
2019-01-02T06:24:43.322Z,1.93
2019-01-02T06:27:24.438Z,1.93
2019-01-02T06:30:05.304Z,1.93
2019-01-02T06:32:46.171Z,2.07
2019-01-02T06:38:08.841Z,1.93
2019-01-02T06:40:49.779Z,1.73
2019-01-02T06:43:30.653Z,2.10
2019-01-02T06:46:11.302Z,2.57
2019-01-02T06:48:52.331Z,2.57
2019-01-02T06:51:32.541Z,2.20
2019-01-02T06:54:13.017Z,2.07
2019-01-02T06:56:53.797Z,2.33
2019-01-02T06:59:34.529Z,2.50
2019-01-02T07:02:15.321Z,2.67
2019-01-02T07:04:56.300Z,2.33
2019-01-02T07:07:37.309Z,3.00
2019-01-02T07:10:17.730Z,2.77
2019-01-02T07:12:58.805Z,2.40
2019-01-02T07:15:39.509Z,2.70
2019-01-02T07:18:20.034Z,2.67
2019-01-02T07:21:00.924Z,2.73
2019-01-02T07:23:41.663Z,2.50
2019-01-02T07:26:22.582Z,2.33
2019-01-02T07:29:03.160Z,3.00
2019-01-02T07:31:43.753Z,2.70
2019-01-02T07:34:24.534Z,2.37
2019-01-02T07:37:05.629Z,2.57
2019-01-02T07:39:46.508Z,2.70
2019-01-02T07:42:26.927Z,2.87
2019-01-02T07:45:07.704Z,4.30
2019-01-02T07:47:48.260Z,3.17
2019-01-02T07:50:28.743Z,2.67
2019-01-02T07:53:09.534Z,2.23
2019-01-02T07:55:50.317Z,3.20
2019-01-02T07:58:30.894Z,3.00
2019-01-02T08:01:11.882Z,2.70
2019-01-02T08:03:52.682Z,3.17
2019-01-02T08:06:33.419Z,2.33
2019-01-02T08:09:14.324Z,2.60
2019-01-02T08:11:55.201Z,2.53
2019-01-02T08:14:35.790Z,3.00
2019-01-02T08:17:16.573Z,2.83
2019-01-02T08:19:57.146Z,3.20
2019-01-02T08:22:37.905Z,2.73
2019-01-02T08:25:18.264Z,3.87
2019-01-02T08:27:58.906Z,2.83
2019-01-02T08:30:39.984Z,3.33
2019-01-02T08:33:20.826Z,3.23
2019-01-02T08:36:01.567Z,3.07
2019-01-02T08:38:42.290Z,3.43
2019-01-02T08:41:22.782Z,3.03
2019-01-02T08:44:03.431Z,2.87
2019-01-02T08:46:44.463Z,3.10
2019-01-02T08:49:25.073Z,2.27
2019-01-02T08:52:05.767Z,2.83
2019-01-02T08:54:46.593Z,2.30
2019-01-02T08:57:27.119Z,3.30
2019-01-02T09:00:08.075Z,2.93
2019-01-02T09:02:48.938Z,2.83
2019-01-02T09:05:29.506Z,2.80
2019-01-02T09:08:10.348Z,3.70
2019-01-02T09:10:51.006Z,2.93
2019-01-02T09:13:31.508Z,3.00
2019-01-02T09:16:12.139Z,2.67
2019-01-02T09:18:53.111Z,3.57
2019-01-02T09:21:33.689Z,2.73
2019-01-02T09:24:14.575Z,3.67
2019-01-02T09:26:55.417Z,3.20
2019-01-02T09:29:36.278Z,3.00
2019-01-02T09:32:16.845Z,3.60
2019-01-02T09:34:57.336Z,3.53
2019-01-02T09:37:38.136Z,3.23
2019-01-02T09:40:18.924Z,2.83
2019-01-02T09:42:59.715Z,3.37
2019-01-02T09:45:40.603Z,3.30
2019-01-02T09:48:21.345Z,3.37
2019-01-02T09:51:02.309Z,3.23
2019-01-02T09:53:43.011Z,3.27
2019-01-02T09:56:23.600Z,3.00
2019-01-02T09:59:05.248Z,2.67
2019-01-02T10:01:45.812Z,3.50
2019-01-02T10:04:26.589Z,2.30
2019-01-02T10:07:07.270Z,2.63
2019-01-02T10:09:47.712Z,2.87
2019-01-02T10:12:28.204Z,3.10
2019-01-02T10:15:08.905Z,2.60
2019-01-02T10:17:49.809Z,2.47
2019-01-02T10:20:30.480Z,2.27
2019-01-02T10:23:11.147Z,2.50
2019-01-02T10:25:52.317Z,2.97
2019-01-02T10:28:33.328Z,2.83
2019-01-02T10:31:14.215Z,2.33
2019-01-02T10:33:54.611Z,3.10
2019-01-02T10:36:35.504Z,2.43
2019-01-02T10:39:16.285Z,3.30
2019-01-02T10:41:56.772Z,2.50
2019-01-02T10:44:37.504Z,2.67
2019-01-02T10:47:18.408Z,2.70
2019-01-02T10:49:59.067Z,3.50
2019-01-02T10:52:40.010Z,3.37
2019-01-02T10:55:20.559Z,3.00
2019-01-02T10:58:01.353Z,3.40
2019-01-02T11:00:42.453Z,2.70
2019-01-02T11:03:23.086Z,2.80
2019-01-02T11:06:03.583Z,3.27
2019-01-02T11:08:44.486Z,3.40
2019-01-02T11:11:25.418Z,2.43
2019-01-02T11:14:06.205Z,2.53
2019-01-02T11:16:47.077Z,3.67
2019-01-02T11:19:27.802Z,2.23
2019-01-02T11:22:08.517Z,2.87
2019-01-02T11:24:49.492Z,1.63
2019-01-02T11:27:30.226Z,2.97
2019-01-02T11:30:10.792Z,2.20
2019-01-02T11:32:51.239Z,2.73
2019-01-02T11:35:32.199Z,2.33
2019-01-02T11:38:13.106Z,2.47
2019-01-02T11:40:53.820Z,2.63
2019-01-02T11:43:34.792Z,2.80
2019-01-02T11:46:15.696Z,3.00
2019-01-02T11:48:56.218Z,2.67
2019-01-02T11:51:37.325Z,2.70
2019-01-02T11:54:18.300Z,2.90
2019-01-02T11:56:59.279Z,2.33
2019-01-02T11:59:40.030Z,2.67
2019-01-02T12:02:21.105Z,2.90
2019-01-02T12:05:01.588Z,3.37
2019-01-02T12:07:42.701Z,3.27
2019-01-02T12:10:23.804Z,3.23
2019-01-02T12:13:04.577Z,3.07
2019-01-02T12:15:45.390Z,2.67
2019-01-02T12:18:25.965Z,3.20
2019-01-02T12:21:06.992Z,3.03
2019-01-02T12:23:47.456Z,2.90
2019-01-02T12:26:28.319Z,2.63
2019-01-02T12:29:09.128Z,3.17
2019-01-02T12:31:50.225Z,3.43
2019-01-02T12:34:30.952Z,3.00
2019-01-02T12:37:11.388Z,2.93
2019-01-02T12:39:52.317Z,3.43
2019-01-02T12:42:33.383Z,5.67
2019-01-02T12:45:13.946Z,3.63
2019-01-02T12:47:54.631Z,3.03
2019-01-02T12:50:35.431Z,3.43
2019-01-02T12:53:16.413Z,3.17
2019-01-02T12:55:57.173Z,3.57
2019-01-02T12:58:37.958Z,3.27
2019-01-02T13:01:18.641Z,3.97
2019-01-02T13:03:59.448Z,3.23
2019-01-02T13:06:40.173Z,3.30
2019-01-02T13:09:21.084Z,3.70
2019-01-02T13:12:01.765Z,2.60
2019-01-02T13:14:42.475Z,3.37
2019-01-02T13:17:23.483Z,2.57
2019-01-02T13:20:04.142Z,2.70
2019-01-02T13:22:44.736Z,3.47
2019-01-02T13:25:25.816Z,3.20
2019-01-02T13:28:06.611Z,3.20
2019-01-02T13:30:47.324Z,3.37
2019-01-02T13:33:28.218Z,3.50
2019-01-02T13:36:08.881Z,3.10
2019-01-02T13:38:49.427Z,4.53
2019-01-02T13:41:30.607Z,3.10
2019-01-02T13:44:11.512Z,3.13
2019-01-02T13:46:52.565Z,4.07
2019-01-02T13:49:33.258Z,3.43
2019-01-02T13:52:13.781Z,3.63
2019-01-02T13:54:54.492Z,3.10
2019-01-02T13:57:35.055Z,2.60
2019-01-02T14:00:16.013Z,1.50
2019-01-02T14:02:56.382Z,2.97
2019-01-02T14:05:37.242Z,2.80
2019-01-02T14:08:18.111Z,3.30
2019-01-02T14:10:58.778Z,2.70
2019-01-02T14:13:39.602Z,3.27
2019-01-02T14:16:20.186Z,3.23
2019-01-02T14:19:00.970Z,4.00
2019-01-02T14:21:41.592Z,3.47
2019-01-02T14:24:22.027Z,2.17
2019-01-02T14:27:02.868Z,3.30
2019-01-02T14:29:43.534Z,3.50
2019-01-02T14:32:24.391Z,3.70
2019-01-02T14:35:04.974Z,3.10
2019-01-02T14:37:45.585Z,3.27
2019-01-02T14:40:26.451Z,2.90
2019-01-02T14:43:07.233Z,2.60
2019-01-02T14:45:47.758Z,2.10
2019-01-02T14:48:28.409Z,2.60
2019-01-02T14:51:08.844Z,2.83
2019-01-02T14:53:49.294Z,2.97
2019-01-02T14:56:30.032Z,3.20
2019-01-02T14:59:10.886Z,3.17
2019-01-02T15:01:51.377Z,2.53
2019-01-02T15:04:31.683Z,2.87
2019-01-02T15:07:12.502Z,2.80
2019-01-02T15:09:53.094Z,2.60
2019-01-02T15:12:33.947Z,2.53
2019-01-02T15:15:14.528Z,2.37
2019-01-02T15:17:55.214Z,2.70
2019-01-02T15:20:35.761Z,3.20
2019-01-02T15:23:16.752Z,2.60
2019-01-02T15:25:57.545Z,2.77
2019-01-02T15:28:38.035Z,2.83
2019-01-02T15:31:18.910Z,2.53
2019-01-02T15:33:59.442Z,2.90
2019-01-02T15:36:40.072Z,3.57
2019-01-02T15:39:20.461Z,3.30
2019-01-02T15:42:01.038Z,3.00
2019-01-02T15:44:41.786Z,3.10
2019-01-02T15:47:22.391Z,3.10
2019-01-02T15:50:03.064Z,3.50
2019-01-02T15:52:43.996Z,4.40
2019-01-02T15:55:24.675Z,3.13
2019-01-02T15:58:05.729Z,3.23
2019-01-02T16:00:46.315Z,3.43
2019-01-02T16:03:26.822Z,3.50
2019-01-02T16:06:07.268Z,4.00
2019-01-02T16:08:46.025Z,4.17
2019-01-02T16:11:33.817Z,3.57
2019-01-02T16:14:21.577Z,4.07
2019-01-02T16:17:09.366Z,3.27
2019-01-02T16:19:57.112Z,3.37
2019-01-02T16:22:44.879Z,3.40
2019-01-02T16:25:32.639Z,4.03
2019-01-02T16:28:01.087Z,3.30
2019-01-02T16:30:41.593Z,3.50
2019-01-02T16:33:22.060Z,4.17
2019-01-02T16:36:02.448Z,3.87
2019-01-02T16:38:43.434Z,3.53
2019-01-02T16:41:24.472Z,3.53
2019-01-02T16:44:04.882Z,3.67
2019-01-02T16:46:45.600Z,5.37
2019-01-02T16:49:26.376Z,4.70
2019-01-02T16:52:07.092Z,4.40
2019-01-02T16:54:47.976Z,4.53
2019-01-02T16:57:29.039Z,4.03
2019-01-02T17:00:09.733Z,4.77
2019-01-02T17:02:50.355Z,4.97
2019-01-02T17:05:30.999Z,5.03
2019-01-02T17:08:11.991Z,4.10
2019-01-02T17:10:52.763Z,4.60
2019-01-02T17:13:33.228Z,4.30
2019-01-02T17:16:13.972Z,4.07
2019-01-02T17:18:54.706Z,4.27
2019-01-02T17:21:35.518Z,4.60
2019-01-02T17:24:15.820Z,4.23
2019-01-02T17:26:56.487Z,4.33
2019-01-02T17:29:36.982Z,4.90
2019-01-02T17:32:17.496Z,4.53
2019-01-02T17:34:58.144Z,4.80
2019-01-02T17:37:38.677Z,5.00
2019-01-02T17:40:19.424Z,4.13
2019-01-02T17:43:00.700Z,4.10
2019-01-02T17:45:41.707Z,4.77
2019-01-02T17:48:22.449Z,5.03
2019-01-02T17:51:03.046Z,4.30
2019-01-02T17:53:43.953Z,4.30
2019-01-02T17:56:24.713Z,4.83
2019-01-02T17:59:05.391Z,4.53
2019-01-02T18:01:46.193Z,5.23
2019-01-02T18:04:26.803Z,6.43
2019-01-02T18:07:07.472Z,6.63
2019-01-02T18:09:48.232Z,6.50
2019-01-02T18:12:28.945Z,6.80
2019-01-02T18:15:09.149Z,5.80
2019-01-02T18:17:49.801Z,6.20
2019-01-02T18:20:30.374Z,6.33
2019-01-02T18:23:10.886Z,5.20
2019-01-02T18:25:51.633Z,5.47
2019-01-02T18:28:32.377Z,5.57
2019-01-02T18:31:13.162Z,5.87
2019-01-02T18:33:53.951Z,5.90
2019-01-02T18:36:34.888Z,6.27
2019-01-02T18:39:15.349Z,6.40
2019-01-02T18:41:55.923Z,6.47
2019-01-02T18:44:36.796Z,7.47
2019-01-02T18:47:17.608Z,7.33
2019-01-02T18:49:58.040Z,8.37
2019-01-02T18:52:38.667Z,8.87
2019-01-02T18:55:19.101Z,8.03
2019-01-02T18:57:59.909Z,7.50
2019-01-02T19:00:40.998Z,7.30
2019-01-02T19:03:21.840Z,8.10
2019-01-02T19:06:02.728Z,8.23
2019-01-02T19:08:43.271Z,17.10
2019-01-02T19:11:24.052Z,32.17
2019-01-02T19:14:04.844Z,20.67
2019-01-02T19:16:45.319Z,11.73
2019-01-02T19:19:26.244Z,10.20
2019-01-02T19:22:06.927Z,9.40
2019-01-02T19:24:47.616Z,8.33
2019-01-02T19:27:28.349Z,7.73
2019-01-02T19:30:08.773Z,8.47
2019-01-02T19:32:49.582Z,8.13
2019-01-02T19:35:30.562Z,8.33
2019-01-02T19:38:11.003Z,7.57
2019-01-02T19:40:51.997Z,8.23
2019-01-02T19:43:32.389Z,8.97
2019-01-02T19:46:13.337Z,7.97
2019-01-02T19:48:53.748Z,7.97
2019-01-02T19:51:34.155Z,9.03
2019-01-02T19:54:14.665Z,8.73
2019-01-02T19:56:55.214Z,8.30
2019-01-02T19:59:35.542Z,8.10
2019-01-02T20:02:16.097Z,7.33
2019-01-02T20:04:56.965Z,8.07
2019-01-02T20:07:37.490Z,7.70
2019-01-02T20:10:18.110Z,7.63
2019-01-02T20:12:58.725Z,7.03
2019-01-02T20:15:40.091Z,7.00
2019-01-02T20:18:20.544Z,6.43
2019-01-02T20:21:01.508Z,6.60
2019-01-02T20:23:42.301Z,7.43
2019-01-02T20:26:23.139Z,5.97
2019-01-02T20:29:04.113Z,6.13
2019-01-02T20:31:45.000Z,5.80
2019-01-02T20:34:25.606Z,6.77
2019-01-02T20:37:06.149Z,6.97
2019-01-02T20:39:46.655Z,7.03
2019-01-02T20:42:27.439Z,7.20
2019-01-02T20:45:08.280Z,7.53
2019-01-02T20:47:49.213Z,8.20
2019-01-02T20:50:29.992Z,10.13
2019-01-02T20:53:10.649Z,10.00
2019-01-02T20:55:51.405Z,10.77
2019-01-02T20:58:32.124Z,12.03
2019-01-02T21:01:12.381Z,9.87
2019-01-02T21:03:53.109Z,10.43
2019-01-02T21:06:33.844Z,11.53
2019-01-02T21:09:14.538Z,12.07
2019-01-02T21:11:55.528Z,11.83
2019-01-02T21:14:36.071Z,11.03
2019-01-02T21:17:16.866Z,12.60
2019-01-02T21:19:57.303Z,9.93
2019-01-02T21:22:38.068Z,12.03
2019-01-02T21:25:19.004Z,10.77
2019-01-02T21:27:59.511Z,11.00
2019-01-02T21:30:40.314Z,11.67
2019-01-02T21:33:21.140Z,10.17
2019-01-02T21:36:01.849Z,10.60
2019-01-02T21:38:42.207Z,13.13
2019-01-02T21:41:22.751Z,13.47
2019-01-02T21:44:03.375Z,12.23
2019-01-02T21:46:43.847Z,12.50
2019-01-02T21:49:24.934Z,13.23
2019-01-02T21:52:05.752Z,14.90
2019-01-02T21:54:46.851Z,15.50
2019-01-02T21:57:27.429Z,24.20
2019-01-02T22:00:08.441Z,18.57
2019-01-02T22:02:48.882Z,16.63
2019-01-02T22:05:29.534Z,14.50
2019-01-02T22:08:10.115Z,13.57
2019-01-02T22:10:50.617Z,12.27
2019-01-02T22:13:31.629Z,12.30
2019-01-02T22:16:12.152Z,13.73
2019-01-02T22:18:52.759Z,13.23
2019-01-02T22:21:33.463Z,12.77
2019-01-02T22:24:14.265Z,15.20
2019-01-02T22:26:55.178Z,18.00
2019-01-02T22:29:35.975Z,16.13
2019-01-02T22:32:16.679Z,15.07
2019-01-02T22:34:57.457Z,14.07
2019-01-02T22:37:38.141Z,12.70
2019-01-02T22:40:19.843Z,15.33
2019-01-02T22:43:00.793Z,13.03
2019-01-02T22:45:41.385Z,13.83
2019-01-02T22:48:22.066Z,11.13
2019-01-02T22:51:02.453Z,11.57
2019-01-02T22:53:43.004Z,10.67
2019-01-02T22:56:23.668Z,10.60
2019-01-02T22:59:04.728Z,10.63
2019-01-02T23:01:46.697Z,10.27
2019-01-02T23:04:29.276Z,9.73
2019-01-02T23:07:14.631Z,10.20
2019-01-02T23:13:09.155Z,8.27
2019-01-02T23:15:54.643Z,7.03
2019-01-02T23:22:02.220Z,6.83
2019-01-02T23:24:47.434Z,8.23
2019-01-02T23:27:46.925Z,8.67
2019-01-02T23:30:47.028Z,8.90
2019-01-02T23:33:31.803Z,8.77
2019-01-02T23:39:26.012Z,8.58
2019-01-02T23:42:08.026Z,9.40
2019-01-02T23:45:08.170Z,8.95
2019-01-02T23:47:50.211Z,9.33
2019-01-02T23:50:35.592Z,8.30
2019-01-02T23:53:18.147Z,8.93
2019-01-02T23:56:03.695Z,9.10
2019-01-02T23:58:46.213Z,8.40
